createdAt,value
2023-04-02T00:01:46.542Z,10.71
2023-04-02T00:05:13.942Z,10.66
2023-04-02T00:08:45.507Z,10.61
2023-04-02T00:12:00.524Z,10.57
2023-04-02T00:15:12.490Z,10.57
2023-04-02T00:18:28.553Z,10.56
2023-04-02T00:21:45.500Z,10.55
2023-04-02T00:24:55.611Z,10.55
2023-04-02T00:28:11.526Z,10.59
2023-04-02T00:31:21.254Z,10.56
2023-04-02T00:34:35.517Z,10.55
2023-04-02T00:37:44.720Z,10.57
2023-04-02T00:41:02.479Z,10.57
2023-04-02T00:44:11.492Z,10.56
2023-04-02T00:47:33.538Z,10.45
2023-04-02T00:50:47.493Z,10.50
2023-04-02T00:54:16.533Z,10.53
2023-04-02T00:57:27.030Z,10.53
2023-04-02T01:00:39.514Z,10.54
2023-04-02T01:04:06.502Z,10.53
2023-04-02T01:07:11.231Z,10.58
2023-04-02T01:10:44.503Z,10.54
2023-04-02T01:14:08.312Z,10.56
2023-04-02T01:17:40.544Z,10.55
2023-04-02T01:21:22.513Z,10.50
2023-04-02T01:24:29.945Z,10.59
2023-04-02T01:28:03.722Z,10.57
2023-04-02T01:31:18.623Z,10.57
2023-04-02T01:34:30.505Z,10.57
2023-04-02T01:38:10.554Z,10.55
2023-04-02T01:41:56.497Z,10.56
2023-04-02T01:45:10.749Z,10.55
2023-04-02T01:48:30.514Z,10.52
2023-04-02T01:51:41.495Z,10.48
2023-04-02T01:55:03.509Z,10.46
2023-04-02T01:58:20.500Z,10.46
2023-04-02T02:01:42.553Z,10.50
2023-04-02T02:09:13.468Z,10.55
2023-04-02T02:12:22.649Z,10.44
2023-04-02T02:15:40.488Z,10.40
2023-04-02T02:18:42.865Z,10.44
2023-04-02T02:22:01.631Z,10.44
2023-04-02T02:25:28.512Z,10.43
2023-04-02T02:28:48.493Z,10.45
2023-04-02T02:32:02.540Z,10.44
2023-04-02T02:35:26.391Z,10.43
2023-04-02T02:38:40.511Z,10.44
2023-04-02T02:42:07.527Z,10.43
2023-04-02T02:45:26.507Z,10.40
2023-04-02T02:48:45.538Z,10.40
2023-04-02T02:52:01.490Z,10.37
2023-04-02T02:55:24.521Z,10.38
2023-04-02T02:58:41.517Z,10.42
2023-04-02T03:01:50.726Z,10.41
2023-04-02T03:05:05.510Z,10.38
2023-04-02T03:08:30.543Z,10.41
2023-04-02T03:12:01.508Z,10.43
2023-04-02T03:15:34.382Z,10.44
2023-04-02T03:18:58.521Z,10.42
2023-04-02T03:22:16.204Z,10.35
2023-04-02T03:26:02.520Z,10.35
2023-04-02T03:29:25.553Z,10.32
2023-04-02T03:32:50.524Z,10.35
2023-04-02T03:35:59.894Z,10.32
2023-04-02T03:39:29.526Z,10.30
2023-04-02T03:42:58.525Z,10.25
2023-04-02T03:46:36.528Z,10.20
2023-04-02T03:50:06.509Z,10.21
2023-04-02T03:53:21.504Z,10.16
2023-04-02T03:56:37.495Z,10.14
2023-04-02T04:00:07.545Z,10.09
2023-04-02T04:03:36.595Z,10.10
2023-04-02T04:06:49.217Z,10.08
2023-04-02T04:10:07.515Z,10.07
2023-04-02T04:13:27.516Z,10.00
2023-04-02T04:16:53.553Z,10.03
2023-04-02T04:20:21.543Z,10.03
2023-04-02T04:23:44.517Z,9.98
2023-04-02T04:26:54.736Z,9.97
2023-04-02T04:30:22.501Z,9.92
2023-04-02T04:33:38.915Z,9.91
2023-04-02T04:37:01.545Z,9.93
2023-04-02T04:40:34.503Z,9.95
2023-04-02T04:44:13.497Z,9.93
2023-04-02T04:47:35.572Z,9.97
2023-04-02T04:51:02.532Z,9.94
2023-04-02T04:54:04.999Z,9.97
2023-04-02T04:57:41.507Z,10.04
2023-04-02T05:01:03.718Z,10.25
2023-04-02T05:04:36.514Z,10.26
2023-04-02T05:07:49.100Z,10.43
2023-04-02T05:11:06.501Z,10.57
2023-04-02T05:14:37.635Z,10.89
2023-04-02T05:18:01.582Z,10.59
2023-04-02T05:21:32.498Z,10.68
2023-04-02T05:25:07.536Z,10.97
2023-04-02T05:28:25.648Z,11.63
2023-04-02T05:31:48.593Z,11.38
2023-04-02T05:34:57.909Z,11.71
2023-04-02T05:38:07.529Z,11.19
2023-04-02T05:41:29.210Z,11.13
2023-04-02T05:44:51.513Z,11.09
2023-04-02T05:48:11.537Z,11.09
2023-04-02T05:51:28.008Z,11.18
2023-04-02T05:54:53.524Z,11.38
2023-04-02T05:58:36.049Z,11.44
2023-04-02T06:02:00.500Z,11.51
2023-04-02T06:05:19.533Z,11.59
2023-04-02T06:08:49.518Z,11.64
2023-04-02T06:12:18.517Z,11.70
2023-04-02T06:15:27.108Z,11.74
2023-04-02T06:18:43.531Z,11.93
2023-04-02T06:21:47.534Z,12.05
2023-04-02T06:25:16.537Z,12.25
2023-04-02T06:28:31.538Z,12.24
2023-04-02T06:31:53.614Z,12.55
2023-04-02T06:34:55.846Z,12.87
2023-04-02T06:38:13.538Z,13.01
2023-04-02T06:41:33.614Z,13.26
2023-04-02T06:44:37.636Z,13.40
2023-04-02T06:47:56.645Z,13.68
2023-04-02T06:51:12.569Z,14.00
2023-04-02T06:54:34.599Z,14.12
2023-04-02T06:57:49.525Z,14.50
2023-04-02T07:00:51.681Z,14.52
2023-04-02T07:04:07.532Z,14.34
2023-04-02T07:07:16.102Z,14.10
2023-04-02T07:10:24.609Z,14.12
2023-04-02T07:13:33.275Z,14.28
2023-04-02T07:16:41.634Z,14.41
2023-04-02T07:19:56.530Z,14.85
2023-04-02T07:23:07.619Z,15.35
2023-04-02T07:26:41.536Z,15.74
2023-04-02T07:29:50.552Z,15.61
2023-04-02T07:33:05.551Z,15.71
2023-04-02T07:36:23.603Z,15.63
2023-04-02T07:39:25.544Z,15.26
2023-04-02T07:42:40.580Z,15.07
2023-04-02T07:45:57.591Z,14.71
2023-04-02T07:48:59.684Z,14.69
2023-04-02T07:52:14.526Z,14.89
2023-04-02T07:55:29.851Z,15.48
2023-04-02T07:58:44.530Z,15.80
2023-04-02T08:01:53.327Z,15.77
2023-04-02T08:05:08.539Z,15.83
2023-04-02T08:08:23.559Z,15.41
2023-04-02T08:11:32.440Z,15.46
2023-04-02T08:14:40.552Z,15.45
2023-04-02T08:17:55.606Z,15.41
2023-04-02T08:21:07.529Z,15.57
2023-04-02T08:24:24.572Z,15.56
2023-04-02T08:27:33.182Z,15.51
2023-04-02T08:30:48.625Z,15.26
2023-04-02T08:33:50.706Z,14.94
2023-04-02T08:37:05.568Z,15.03
2023-04-02T08:40:22.626Z,15.12
2023-04-02T08:44:07.541Z,15.26
2023-04-02T08:47:25.577Z,16.05
2023-04-02T08:50:49.567Z,16.08
2023-04-02T08:54:17.613Z,16.49
2023-04-02T08:57:41.570Z,16.90
2023-04-02T09:01:01.564Z,17.12
2023-04-02T09:04:13.598Z,16.80
2023-04-02T09:07:28.606Z,16.53
2023-04-02T09:10:45.600Z,16.32
2023-04-02T09:14:04.619Z,16.69
2023-04-02T09:17:25.546Z,17.41
2023-04-02T09:20:28.110Z,17.40
2023-04-02T09:23:42.612Z,17.29
2023-04-02T09:26:57.565Z,17.42
2023-04-02T09:30:17.598Z,17.90
2023-04-02T09:33:43.996Z,18.03
2023-04-02T09:36:58.564Z,17.54
2023-04-02T09:40:16.869Z,17.43
2023-04-02T09:43:28.870Z,17.02
2023-04-02T09:46:43.618Z,17.05
2023-04-02T09:49:53.870Z,16.84
2023-04-02T09:53:31.257Z,16.80
2023-04-02T09:57:23.599Z,16.73
2023-04-02T10:00:32.888Z,16.53
2023-04-02T10:03:43.241Z,16.43
2023-04-02T10:06:56.568Z,16.32
2023-04-02T10:10:43.553Z,16.47
2023-04-02T10:13:48.737Z,16.66
2023-04-02T10:17:09.610Z,16.82
2023-04-02T10:20:22.891Z,16.83
2023-04-02T10:23:38.560Z,16.71
2023-04-02T10:27:32.574Z,16.53
2023-04-02T10:31:10.874Z,16.50
2023-04-02T10:34:31.557Z,16.41
2023-04-02T10:37:46.216Z,16.71
2023-04-02T10:41:19.735Z,17.19
2023-04-02T10:44:40.618Z,17.28
2023-04-02T10:48:01.010Z,17.36
2023-04-02T10:51:23.602Z,17.19
2023-04-02T10:54:54.373Z,16.75
2023-04-02T10:58:11.597Z,16.90
2023-04-02T11:01:34.900Z,17.09
2023-04-02T11:04:53.976Z,17.06
2023-04-02T11:08:13.203Z,16.98
2023-04-02T11:11:40.591Z,16.78
2023-04-02T11:15:00.610Z,17.25
2023-04-02T11:18:09.699Z,17.47
2023-04-02T11:21:44.861Z,17.21
2023-04-02T11:25:07.623Z,17.26
2023-04-02T11:28:38.568Z,17.76
2023-04-02T11:31:55.710Z,18.51
2023-04-02T11:35:32.706Z,18.77
2023-04-02T11:39:01.884Z,18.82
2023-04-02T11:42:25.861Z,18.78
2023-04-02T11:45:51.918Z,18.96
2023-04-02T11:49:40.656Z,18.08
2023-04-02T11:52:49.491Z,17.64
2023-04-02T11:56:23.587Z,17.79
2023-04-02T11:59:55.822Z,17.86
2023-04-02T12:03:35.586Z,18.13
2023-04-02T12:06:50.718Z,18.60
2023-04-02T12:10:04.664Z,18.53
2023-04-02T12:13:46.616Z,18.06
2023-04-02T12:17:02.657Z,17.83
2023-04-02T12:20:17.606Z,18.07
2023-04-02T12:23:32.911Z,18.72
2023-04-02T12:26:48.886Z,18.78
2023-04-02T12:30:21.679Z,18.93
2023-04-02T12:33:44.652Z,19.01
2023-04-02T12:36:58.646Z,19.25
2023-04-02T12:40:23.577Z,18.78
2023-04-02T12:43:37.148Z,18.96
2023-04-02T12:46:46.618Z,18.32
2023-04-02T12:49:58.558Z,17.85
2023-04-02T12:53:07.588Z,17.51
2023-04-02T12:56:23.495Z,16.86
2023-04-02T12:59:43.602Z,17.42
2023-04-02T13:03:02.456Z,17.73
2023-04-02T13:06:28.617Z,17.98
2023-04-02T13:09:47.737Z,17.86
2023-04-02T13:13:09.596Z,17.40
2023-04-02T13:16:18.157Z,17.18
2023-04-02T13:19:40.661Z,17.37
2023-04-02T13:22:42.659Z,17.85
2023-04-02T13:25:58.615Z,18.03
2023-04-02T13:29:17.638Z,18.33
2023-04-02T13:32:32.875Z,18.19
2023-04-02T13:35:48.629Z,18.46
2023-04-02T13:38:57.708Z,17.61
2023-04-02T13:42:06.733Z,17.25
2023-04-02T13:45:45.654Z,16.89
2023-04-02T13:48:54.630Z,16.79
2023-04-02T13:52:04.007Z,16.60
2023-04-02T13:55:29.988Z,16.51
2023-04-02T13:58:38.326Z,16.96
2023-04-02T14:01:55.084Z,17.53
2023-04-02T14:05:28.286Z,17.59
2023-04-02T14:09:09.665Z,16.98
2023-04-02T14:12:55.658Z,17.27
2023-04-02T14:16:33.649Z,17.39
2023-04-02T14:20:14.672Z,17.60
2023-04-02T14:23:34.631Z,17.73
2023-04-02T14:27:17.621Z,17.60
2023-04-02T14:30:38.089Z,17.79
2023-04-02T14:34:14.909Z,17.79
2023-04-02T14:37:40.879Z,17.82
2023-04-02T14:41:13.544Z,17.36
2023-04-02T14:44:32.658Z,17.04
2023-04-02T14:47:52.095Z,16.77
2023-04-02T14:51:12.636Z,16.51
2023-04-02T14:54:36.623Z,16.24
2023-04-02T14:58:01.034Z,15.92
2023-04-02T15:01:15.330Z,15.62
2023-04-02T15:04:37.806Z,15.52
2023-04-02T15:08:01.807Z,15.33
2023-04-02T15:11:40.649Z,15.19
2023-04-02T15:15:03.643Z,14.73
2023-04-02T15:18:23.842Z,14.67
2023-04-02T15:21:57.663Z,14.44
2023-04-02T15:25:21.090Z,14.25
2023-04-02T15:29:00.335Z,13.88
2023-04-02T15:32:25.156Z,13.63
2023-04-02T15:35:51.502Z,13.49
2023-04-02T15:39:10.593Z,13.22
2023-04-02T15:42:26.548Z,12.93
2023-04-02T15:45:52.094Z,12.92
2023-04-02T15:49:27.093Z,12.81
2023-04-02T15:52:49.390Z,12.61
2023-04-02T15:56:26.800Z,12.64
2023-04-02T15:59:57.129Z,12.60
2023-04-02T16:03:32.887Z,12.55
2023-04-02T16:07:11.724Z,12.49
2023-04-02T16:10:18.006Z,12.52
2023-04-02T16:13:41.820Z,12.51
2023-04-02T16:16:52.929Z,12.56
2023-04-02T16:20:12.833Z,12.69
2023-04-02T16:23:40.537Z,12.69
2023-04-02T16:27:09.613Z,12.92
2023-04-02T16:30:40.043Z,13.04
2023-04-02T16:34:14.841Z,13.11
2023-04-02T16:37:37.164Z,13.24
2023-04-02T16:41:20.130Z,13.32
2023-04-02T16:44:53.091Z,13.31
2023-04-02T16:48:14.347Z,13.26
2023-04-02T16:51:39.485Z,13.16
2023-04-02T16:55:04.857Z,13.04
2023-04-02T16:58:32.095Z,12.98
2023-04-02T17:01:54.213Z,12.90
2023-04-02T17:05:24.121Z,12.78
2023-04-02T17:08:37.481Z,12.75
2023-04-02T17:12:01.052Z,12.67
2023-04-02T17:15:27.689Z,12.58
2023-04-02T17:18:45.624Z,12.52
2023-04-02T17:22:00.109Z,12.51
2023-04-02T17:25:28.092Z,12.44
2023-04-02T17:28:46.021Z,12.32
2023-04-02T17:31:50.415Z,12.30
2023-04-02T17:35:46.716Z,12.22
2023-04-02T17:39:30.109Z,12.22
2023-04-02T17:42:51.989Z,12.18
2023-04-02T17:46:41.089Z,12.15
2023-04-02T17:50:14.140Z,12.04
2023-04-02T17:53:19.181Z,11.95
2023-04-02T17:56:41.071Z,11.91
2023-04-02T18:00:19.917Z,11.85
2023-04-02T18:03:54.704Z,11.70
2023-04-02T18:07:33.657Z,11.65
2023-04-02T18:11:01.258Z,11.41
2023-04-02T18:14:36.656Z,11.35
2023-04-02T18:18:04.213Z,11.41
2023-04-02T18:21:37.158Z,11.33
2023-04-02T18:25:14.856Z,11.24
2023-04-02T18:28:48.722Z,11.17
2023-04-02T18:32:18.815Z,11.19
2023-04-02T18:35:45.157Z,11.09
2023-04-02T18:39:22.651Z,11.09
2023-04-02T18:43:04.163Z,10.93
2023-04-02T18:46:25.704Z,10.94
2023-04-02T18:49:54.127Z,10.81
2023-04-02T18:53:19.190Z,10.68
2023-04-02T18:56:46.686Z,10.53
2023-04-02T19:00:10.653Z,10.57
2023-04-02T19:03:38.348Z,10.46
2023-04-02T19:07:16.833Z,10.47
2023-04-02T19:10:45.268Z,10.40
2023-04-02T19:14:05.858Z,10.41
2023-04-02T19:17:40.958Z,10.33
2023-04-02T19:20:58.685Z,10.35
2023-04-02T19:24:45.043Z,10.21
2023-04-02T19:28:24.647Z,10.19
2023-04-02T19:32:16.052Z,10.11
2023-04-02T19:35:36.440Z,10.05
2023-04-02T19:38:52.072Z,9.97
2023-04-02T19:42:11.096Z,9.99
2023-04-02T19:45:44.894Z,10.00
2023-04-02T19:49:21.726Z,9.91
2023-04-02T19:52:37.741Z,9.85
2023-04-02T19:55:48.192Z,9.87
2023-04-02T19:59:17.154Z,9.78
2023-04-02T20:02:26.988Z,9.71
2023-04-02T20:05:43.025Z,9.66
2023-04-02T20:08:46.745Z,9.67
2023-04-02T20:12:02.169Z,9.74
2023-04-02T20:15:20.100Z,9.70
2023-04-02T20:18:35.946Z,9.64
2023-04-02T20:21:44.666Z,9.62
2023-04-02T20:24:53.689Z,9.55
2023-04-02T20:28:09.923Z,9.57
2023-04-02T20:31:18.885Z,9.52
2023-04-02T20:34:33.840Z,9.50
2023-04-02T20:37:49.116Z,9.55
2023-04-02T20:40:54.747Z,9.56
2023-04-02T20:44:11.040Z,9.46
2023-04-02T20:47:19.668Z,9.52
2023-04-02T20:50:28.880Z,9.44
2023-04-02T20:53:39.747Z,9.45
2023-04-02T20:56:49.075Z,9.42
2023-04-02T21:00:03.666Z,9.25
2023-04-02T21:03:18.669Z,9.49
2023-04-02T21:06:39.655Z,9.45
2023-04-02T21:09:54.685Z,9.39
2023-04-02T21:13:03.272Z,9.29
2023-04-02T21:16:18.725Z,9.27
2023-04-02T21:19:33.637Z,9.28
2023-04-02T21:22:35.925Z,9.17
2023-04-02T21:26:03.656Z,9.19
2023-04-02T21:29:06.321Z,9.11
2023-04-02T21:32:22.180Z,9.17
2023-04-02T21:35:37.868Z,9.14
2023-04-02T21:38:55.673Z,9.18
2023-04-02T21:42:10.676Z,9.24
2023-04-02T21:45:12.493Z,9.23
2023-04-02T21:48:27.682Z,9.29
2023-04-02T21:51:44.666Z,9.29
2023-04-02T21:54:53.325Z,9.24
2023-04-02T21:58:08.655Z,9.13
2023-04-02T22:01:26.593Z,9.01
2023-04-02T22:04:42.661Z,8.95
2023-04-02T22:07:51.663Z,8.98
2023-04-02T22:11:11.268Z,8.94
2023-04-02T22:14:25.696Z,8.96
2023-04-02T22:17:34.314Z,8.81
2023-04-02T22:20:44.682Z,8.51
2023-04-02T22:23:53.700Z,8.47
2023-04-02T22:27:01.691Z,8.55
2023-04-02T22:30:10.597Z,8.47
2023-04-02T22:33:19.671Z,8.54
2023-04-02T22:36:36.651Z,8.56
2023-04-02T22:39:45.530Z,8.59
2023-04-02T22:42:53.694Z,8.52
2023-04-02T22:46:09.640Z,8.42
2023-04-02T22:49:18.719Z,8.34
2023-04-02T22:52:27.216Z,8.25
2023-04-02T22:55:41.668Z,8.25
2023-04-02T22:59:03.646Z,8.21
2023-04-02T23:02:12.310Z,8.27
2023-04-02T23:05:21.678Z,8.21
2023-04-02T23:08:36.657Z,8.23
2023-04-02T23:11:38.575Z,8.08
2023-04-02T23:14:53.674Z,8.21
2023-04-02T23:17:55.617Z,8.11
2023-04-02T23:21:11.661Z,8.15
2023-04-02T23:24:20.658Z,8.18
2023-04-02T23:27:35.662Z,8.15
2023-04-02T23:30:37.870Z,8.17
2023-04-02T23:33:52.730Z,8.08
2023-04-02T23:37:00.659Z,8.14
2023-04-02T23:40:09.941Z,8.17
2023-04-02T23:43:24.675Z,8.24
2023-04-02T23:46:33.699Z,8.18
2023-04-02T23:49:48.680Z,8.10
2023-04-02T23:52:50.634Z,8.08
2023-04-02T23:56:05.657Z,8.13
2023-04-02T23:59:20.691Z,8.03
